sensor_id;sensor_type;location;lat;lon;timestamp;P1;durP1;ratioP1;P2;durP2;ratioP2
2840;SDS011;53423;49.224;12.074;2022-08-01T00:01:15;5.70;;;3.22;;
2840;SDS011;53423;49.224;12.074;2022-08-01T00:03:44;6.38;;;3.38;;
2840;SDS011;53423;49.224;12.074;2022-08-01T00:06:13;6.30;;;3.70;;
2840;SDS011;53423;49.224;12.074;2022-08-01T00:08:41;6.33;;;3.73;;
2840;SDS011;53423;49.224;12.074;2022-08-01T00:11:09;6.97;;;3.58;;
2840;SDS011;53423;49.224;12.074;2022-08-01T00:13:38;6.43;;;3.10;;
2840;SDS011;53423;49.224;12.074;2022-08-01T00:16:06;6.20;;;3.38;;
2840;SDS011;53423;49.224;12.074;2022-08-01T00:18:34;5.88;;;3.22;;
2840;SDS011;53423;49.224;12.074;2022-08-01T00:21:04;6.10;;;3.40;;
2840;SDS011;53423;49.224;12.074;2022-08-01T00:23:33;7.57;;;3.75;;
2840;SDS011;53423;49.224;12.074;2022-08-01T00:26:01;5.68;;;3.10;;
2840;SDS011;53423;49.224;12.074;2022-08-01T00:28:30;6.50;;;3.00;;
2840;SDS011;53423;49.224;12.074;2022-08-01T00:30:58;6.65;;;3.92;;
2840;SDS011;53423;49.224;12.074;2022-08-01T00:33:26;7.30;;;3.43;;
2840;SDS011;53423;49.224;12.074;2022-08-01T00:35:55;5.97;;;3.05;;
2840;SDS011;53423;49.224;12.074;2022-08-01T00:38:24;6.15;;;3.05;;
2840;SDS011;53423;49.224;12.074;2022-08-01T00:40:53;6.05;;;3.22;;
2840;SDS011;53423;49.224;12.074;2022-08-01T00:43:21;6.90;;;3.60;;
2840;SDS011;53423;49.224;12.074;2022-08-01T00:45:49;7.07;;;3.73;;
2840;SDS011;53423;49.224;12.074;2022-08-01T00:48:18;6.80;;;3.20;;
2840;SDS011;53423;49.224;12.074;2022-08-01T00:50:46;6.13;;;3.38;;
2840;SDS011;53423;49.224;12.074;2022-08-01T00:53:14;6.25;;;3.55;;
2840;SDS011;53423;49.224;12.074;2022-08-01T00:55:45;5.80;;;3.40;;
2840;SDS011;53423;49.224;12.074;2022-08-01T00:58:15;8.10;;;3.60;;
2840;SDS011;53423;49.224;12.074;2022-08-01T01:00:43;6.20;;;3.40;;
2840;SDS011;53423;49.224;12.074;2022-08-01T01:03:19;5.93;;;2.95;;
2840;SDS011;53423;49.224;12.074;2022-08-01T01:06:17;7.03;;;3.70;;
2840;SDS011;53423;49.224;12.074;2022-08-01T01:08:56;6.10;;;3.42;;
2840;SDS011;53423;49.224;12.074;2022-08-01T01:11:39;6.20;;;3.50;;
2840;SDS011;53423;49.224;12.074;2022-08-01T01:14:17;5.78;;;3.25;;
2840;SDS011;53423;49.224;12.074;2022-08-01T01:16:54;5.55;;;3.38;;
2840;SDS011;53423;49.224;12.074;2022-08-01T01:19:27;7.50;;;3.97;;
2840;SDS011;53423;49.224;12.074;2022-08-01T01:22:10;7.00;;;3.55;;
2840;SDS011;53423;49.224;12.074;2022-08-01T01:24:50;6.83;;;3.80;;
2840;SDS011;53423;49.224;12.074;2022-08-01T01:27:33;7.25;;;3.80;;
2840;SDS011;53423;49.224;12.074;2022-08-01T01:30:11;7.03;;;3.63;;
2840;SDS011;53423;49.224;12.074;2022-08-01T01:32:41;5.43;;;3.38;;
2840;SDS011;53423;49.224;12.074;2022-08-01T01:35:13;6.55;;;3.50;;
2840;SDS011;53423;49.224;12.074;2022-08-01T01:37:45;8.60;;;3.70;;
2840;SDS011;53423;49.224;12.074;2022-08-01T01:40:16;6.68;;;3.35;;
2840;SDS011;53423;49.224;12.074;2022-08-01T01:42:47;7.75;;;3.58;;
2840;SDS011;53423;49.224;12.074;2022-08-01T01:45:19;6.20;;;3.42;;
2840;SDS011;53423;49.224;12.074;2022-08-01T01:47:48;6.32;;;3.70;;
2840;SDS011;53423;49.224;12.074;2022-08-01T01:50:19;5.90;;;3.47;;
2840;SDS011;53423;49.224;12.074;2022-08-01T01:52:48;5.60;;;3.30;;
2840;SDS011;53423;49.224;12.074;2022-08-01T01:55:17;5.70;;;3.45;;
2840;SDS011;53423;49.224;12.074;2022-08-01T01:57:49;6.13;;;3.55;;
2840;SDS011;53423;49.224;12.074;2022-08-01T02:00:20;5.78;;;3.33;;
2840;SDS011;53423;49.224;12.074;2022-08-01T02:02:49;6.93;;;3.60;;
2840;SDS011;53423;49.224;12.074;2022-08-01T02:05:18;6.95;;;3.50;;
2840;SDS011;53423;49.224;12.074;2022-08-01T02:07:48;6.07;;;3.10;;
2840;SDS011;53423;49.224;12.074;2022-08-01T02:10:24;7.25;;;3.40;;
2840;SDS011;53423;49.224;12.074;2022-08-01T02:12:54;6.65;;;3.50;;
2840;SDS011;53423;49.224;12.074;2022-08-01T02:15:26;7.80;;;3.70;;
2840;SDS011;53423;49.224;12.074;2022-08-01T02:17:57;6.07;;;3.50;;
2840;SDS011;53423;49.224;12.074;2022-08-01T02:20:27;7.03;;;3.50;;
2840;SDS011;53423;49.224;12.074;2022-08-01T02:23:01;5.57;;;3.40;;
2840;SDS011;53423;49.224;12.074;2022-08-01T02:25:36;6.63;;;3.70;;
2840;SDS011;53423;49.224;12.074;2022-08-01T02:28:30;6.20;;;3.30;;
2840;SDS011;53423;49.224;12.074;2022-08-01T02:31:04;7.65;;;3.70;;
2840;SDS011;53423;49.224;12.074;2022-08-01T02:33:37;7.18;;;3.83;;
2840;SDS011;53423;49.224;12.074;2022-08-01T02:36:07;6.13;;;3.65;;
2840;SDS011;53423;49.224;12.074;2022-08-01T02:38:55;6.53;;;3.65;;
2840;SDS011;53423;49.224;12.074;2022-08-01T02:41:26;6.40;;;4.07;;
2840;SDS011;53423;49.224;12.074;2022-08-01T02:43:56;6.20;;;3.58;;
2840;SDS011;53423;49.224;12.074;2022-08-01T02:46:31;5.97;;;3.55;;
2840;SDS011;53423;49.224;12.074;2022-08-01T02:49:03;6.72;;;3.40;;
2840;SDS011;53423;49.224;12.074;2022-08-01T02:51:35;6.45;;;3.42;;
2840;SDS011;53423;49.224;12.074;2022-08-01T02:54:05;6.80;;;3.40;;
2840;SDS011;53423;49.224;12.074;2022-08-01T02:56:35;6.63;;;3.70;;
2840;SDS011;53423;49.224;12.074;2022-08-01T02:59:05;7.10;;;3.38;;
2840;SDS011;53423;49.224;12.074;2022-08-01T03:01:37;7.13;;;3.88;;
2840;SDS011;53423;49.224;12.074;2022-08-01T03:04:07;6.18;;;3.40;;
2840;SDS011;53423;49.224;12.074;2022-08-01T03:06:36;6.83;;;3.90;;
2840;SDS011;53423;49.224;12.074;2022-08-01T03:09:10;5.90;;;3.67;;
2840;SDS011;53423;49.224;12.074;2022-08-01T03:11:41;6.90;;;3.67;;
2840;SDS011;53423;49.224;12.074;2022-08-01T03:14:12;6.20;;;3.40;;
2840;SDS011;53423;49.224;12.074;2022-08-01T03:16:43;8.07;;;4.20;;
2840;SDS011;53423;49.224;12.074;2022-08-01T03:19:14;6.60;;;4.00;;
2840;SDS011;53423;49.224;12.074;2022-08-01T03:21:45;5.57;;;3.25;;
2840;SDS011;53423;49.224;12.074;2022-08-01T03:24:15;7.95;;;4.43;;
2840;SDS011;53423;49.224;12.074;2022-08-01T03:26:45;7.63;;;4.40;;
2840;SDS011;53423;49.224;12.074;2022-08-01T03:29:16;6.88;;;3.80;;
2840;SDS011;53423;49.224;12.074;2022-08-01T03:31:50;5.63;;;3.50;;
2840;SDS011;53423;49.224;12.074;2022-08-01T03:34:19;6.57;;;3.90;;
2840;SDS011;53423;49.224;12.074;2022-08-01T03:36:49;6.38;;;3.67;;
2840;SDS011;53423;49.224;12.074;2022-08-01T03:39:21;6.47;;;3.97;;
2840;SDS011;53423;49.224;12.074;2022-08-01T03:41:57;7.50;;;3.67;;
2840;SDS011;53423;49.224;12.074;2022-08-01T03:44:30;8.77;;;4.30;;
2840;SDS011;53423;49.224;12.074;2022-08-01T03:47:07;6.20;;;3.58;;
2840;SDS011;53423;49.224;12.074;2022-08-01T03:49:38;7.38;;;4.32;;
2840;SDS011;53423;49.224;12.074;2022-08-01T03:52:10;8.13;;;3.30;;
2840;SDS011;53423;49.224;12.074;2022-08-01T03:54:40;6.35;;;3.50;;
2840;SDS011;53423;49.224;12.074;2022-08-01T03:57:14;6.07;;;3.50;;
2840;SDS011;53423;49.224;12.074;2022-08-01T04:00:03;5.90;;;3.53;;
2840;SDS011;53423;49.224;12.074;2022-08-01T04:02:36;7.45;;;3.35;;
2840;SDS011;53423;49.224;12.074;2022-08-01T04:05:06;6.05;;;3.40;;
2840;SDS011;53423;49.224;12.074;2022-08-01T04:07:35;6.43;;;3.50;;
2840;SDS011;53423;49.224;12.074;2022-08-01T04:10:05;6.40;;;3.80;;
2840;SDS011;53423;49.224;12.074;2022-08-01T04:12:34;7.50;;;3.67;;
2840;SDS011;53423;49.224;12.074;2022-08-01T04:15:03;5.88;;;3.58;;
2840;SDS011;53423;49.224;12.074;2022-08-01T04:17:32;6.75;;;3.45;;
2840;SDS011;53423;49.224;12.074;2022-08-01T04:20:02;6.07;;;3.72;;
2840;SDS011;53423;49.224;12.074;2022-08-01T04:22:31;6.67;;;3.60;;
2840;SDS011;53423;49.224;12.074;2022-08-01T04:25:03;6.72;;;3.63;;
2840;SDS011;53423;49.224;12.074;2022-08-01T04:27:37;7.00;;;3.53;;
2840;SDS011;53423;49.224;12.074;2022-08-01T04:30:17;6.60;;;3.40;;
2840;SDS011;53423;49.224;12.074;2022-08-01T04:32:47;5.70;;;3.47;;
2840;SDS011;53423;49.224;12.074;2022-08-01T04:35:18;7.30;;;3.60;;
2840;SDS011;53423;49.224;12.074;2022-08-01T04:38:08;6.03;;;3.22;;
2840;SDS011;53423;49.224;12.074;2022-08-01T04:40:39;6.93;;;3.45;;
2840;SDS011;53423;49.224;12.074;2022-08-01T04:43:08;7.25;;;3.75;;
2840;SDS011;53423;49.224;12.074;2022-08-01T04:45:36;5.80;;;3.33;;
2840;SDS011;53423;49.224;12.074;2022-08-01T04:48:06;6.00;;;3.30;;
2840;SDS011;53423;49.224;12.074;2022-08-01T04:50:37;6.57;;;3.92;;
2840;SDS011;53423;49.224;12.074;2022-08-01T04:53:11;6.38;;;3.47;;
2840;SDS011;53423;49.224;12.074;2022-08-01T04:55:40;7.30;;;3.40;;
2840;SDS011;53423;49.224;12.074;2022-08-01T04:58:09;7.95;;;3.97;;
2840;SDS011;53423;49.224;12.074;2022-08-01T05:00:43;7.30;;;3.60;;
2840;SDS011;53423;49.224;12.074;2022-08-01T05:03:11;5.80;;;3.33;;
2840;SDS011;53423;49.224;12.074;2022-08-01T05:05:41;5.63;;;3.40;;
2840;SDS011;53423;49.224;12.074;2022-08-01T05:08:09;6.13;;;3.35;;
2840;SDS011;53423;49.224;12.074;2022-08-01T05:10:38;5.97;;;3.50;;
2840;SDS011;53423;49.224;12.074;2022-08-01T05:13:06;6.47;;;3.70;;
2840;SDS011;53423;49.224;12.074;2022-08-01T05:15:34;6.80;;;3.30;;
2840;SDS011;53423;49.224;12.074;2022-08-01T05:18:04;6.00;;;3.45;;
2840;SDS011;53423;49.224;12.074;2022-08-01T05:20:34;6.82;;;3.35;;
2840;SDS011;53423;49.224;12.074;2022-08-01T05:23:05;5.80;;;3.22;;
2840;SDS011;53423;49.224;12.074;2022-08-01T05:25:44;6.50;;;3.30;;
2840;SDS011;53423;49.224;12.074;2022-08-01T05:28:23;7.40;;;3.08;;
2840;SDS011;53423;49.224;12.074;2022-08-01T05:30:51;6.80;;;3.03;;
2840;SDS011;53423;49.224;12.074;2022-08-01T05:33:21;5.22;;;2.88;;
2840;SDS011;53423;49.224;12.074;2022-08-01T05:35:49;5.40;;;3.15;;
2840;SDS011;53423;49.224;12.074;2022-08-01T05:38:19;6.10;;;3.00;;
2840;SDS011;53423;49.224;12.074;2022-08-01T05:40:47;6.25;;;3.05;;
2840;SDS011;53423;49.224;12.074;2022-08-01T05:43:16;5.53;;;2.85;;
2840;SDS011;53423;49.224;12.074;2022-08-01T05:45:44;5.88;;;2.70;;
2840;SDS011;53423;49.224;12.074;2022-08-01T05:48:13;6.82;;;3.00;;
2840;SDS011;53423;49.224;12.074;2022-08-01T05:50:41;6.10;;;3.10;;
2840;SDS011;53423;49.224;12.074;2022-08-01T05:53:10;5.18;;;2.72;;
2840;SDS011;53423;49.224;12.074;2022-08-01T05:55:39;5.88;;;2.85;;
2840;SDS011;53423;49.224;12.074;2022-08-01T05:58:08;5.80;;;2.70;;
2840;SDS011;53423;49.224;12.074;2022-08-01T06:00:38;5.57;;;2.85;;
2840;SDS011;53423;49.224;12.074;2022-08-01T06:03:06;6.20;;;2.70;;
2840;SDS011;53423;49.224;12.074;2022-08-01T06:05:34;5.80;;;2.75;;
2840;SDS011;53423;49.224;12.074;2022-08-01T06:08:03;6.25;;;2.60;;
2840;SDS011;53423;49.224;12.074;2022-08-01T06:10:31;5.30;;;2.80;;
2840;SDS011;53423;49.224;12.074;2022-08-01T06:13:01;6.32;;;2.80;;
2840;SDS011;53423;49.224;12.074;2022-08-01T06:15:29;5.07;;;2.57;;
2840;SDS011;53423;49.224;12.074;2022-08-01T06:17:57;5.68;;;2.70;;
2840;SDS011;53423;49.224;12.074;2022-08-01T06:20:26;5.55;;;2.67;;
2840;SDS011;53423;49.224;12.074;2022-08-01T06:22:54;5.00;;;2.40;;
2840;SDS011;53423;49.224;12.074;2022-08-01T06:25:25;6.60;;;2.42;;
2840;SDS011;53423;49.224;12.074;2022-08-01T06:27:53;6.60;;;2.60;;
2840;SDS011;53423;49.224;12.074;2022-08-01T06:30:23;6.22;;;2.80;;
2840;SDS011;53423;49.224;12.074;2022-08-01T06:32:51;5.90;;;2.60;;
2840;SDS011;53423;49.224;12.074;2022-08-01T06:35:22;6.05;;;2.47;;
2840;SDS011;53423;49.224;12.074;2022-08-01T06:37:50;8.25;;;2.35;;
2840;SDS011;53423;49.224;12.074;2022-08-01T06:40:18;5.63;;;2.40;;
2840;SDS011;53423;49.224;12.074;2022-08-01T06:42:47;4.85;;;2.20;;
2840;SDS011;53423;49.224;12.074;2022-08-01T06:45:15;5.20;;;2.40;;
2840;SDS011;53423;49.224;12.074;2022-08-01T06:47:45;5.40;;;2.60;;
2840;SDS011;53423;49.224;12.074;2022-08-01T06:50:16;4.88;;;2.10;;
2840;SDS011;53423;49.224;12.074;2022-08-01T06:52:44;5.33;;;2.27;;
2840;SDS011;53423;49.224;12.074;2022-08-01T06:55:12;5.07;;;2.10;;
2840;SDS011;53423;49.224;12.074;2022-08-01T06:57:47;4.50;;;1.90;;
2840;SDS011;53423;49.224;12.074;2022-08-01T07:00:17;4.50;;;1.90;;
2840;SDS011;53423;49.224;12.074;2022-08-01T07:02:50;7.22;;;1.83;;
2840;SDS011;53423;49.224;12.074;2022-08-01T07:05:19;4.83;;;1.97;;
2840;SDS011;53423;49.224;12.074;2022-08-01T07:07:47;4.50;;;1.90;;
2840;SDS011;53423;49.224;12.074;2022-08-01T07:10:16;4.50;;;1.83;;
2840;SDS011;53423;49.224;12.074;2022-08-01T07:12:44;4.60;;;2.03;;
2840;SDS011;53423;49.224;12.074;2022-08-01T07:15:13;4.53;;;1.70;;
2840;SDS011;53423;49.224;12.074;2022-08-01T07:17:42;4.43;;;1.73;;
2840;SDS011;53423;49.224;12.074;2022-08-01T07:20:12;6.00;;;2.28;;
2840;SDS011;53423;49.224;12.074;2022-08-01T07:22:41;5.05;;;1.70;;
2840;SDS011;53423;49.224;12.074;2022-08-01T07:25:13;5.22;;;1.73;;
2840;SDS011;53423;49.224;12.074;2022-08-01T07:27:42;4.88;;;1.70;;
2840;SDS011;53423;49.224;12.074;2022-08-01T07:30:11;5.30;;;1.87;;
2840;SDS011;53423;49.224;12.074;2022-08-01T07:32:40;4.93;;;1.90;;
2840;SDS011;53423;49.224;12.074;2022-08-01T07:35:08;4.10;;;1.40;;
2840;SDS011;53423;49.224;12.074;2022-08-01T07:37:38;5.63;;;1.80;;
2840;SDS011;53423;49.224;12.074;2022-08-01T07:40:14;5.38;;;2.00;;
2840;SDS011;53423;49.224;12.074;2022-08-01T07:42:44;4.90;;;1.73;;
2840;SDS011;53423;49.224;12.074;2022-08-01T07:45:12;4.35;;;1.58;;
2840;SDS011;53423;49.224;12.074;2022-08-01T07:47:41;4.72;;;1.40;;
2840;SDS011;53423;49.224;12.074;2022-08-01T07:50:10;4.22;;;1.58;;
2840;SDS011;53423;49.224;12.074;2022-08-01T07:52:41;5.70;;;1.65;;
2840;SDS011;53423;49.224;12.074;2022-08-01T07:55:10;4.07;;;1.60;;
2840;SDS011;53423;49.224;12.074;2022-08-01T07:57:42;4.95;;;1.67;;
2840;SDS011;53423;49.224;12.074;2022-08-01T08:00:10;4.43;;;1.60;;
2840;SDS011;53423;49.224;12.074;2022-08-01T08:02:40;5.30;;;1.40;;
2840;SDS011;53423;49.224;12.074;2022-08-01T08:05:09;5.28;;;1.60;;
2840;SDS011;53423;49.224;12.074;2022-08-01T08:07:38;7.40;;;1.90;;
2840;SDS011;53423;49.224;12.074;2022-08-01T08:10:08;4.40;;;1.40;;
2840;SDS011;53423;49.224;12.074;2022-08-01T08:12:37;4.05;;;1.40;;
2840;SDS011;53423;49.224;12.074;2022-08-01T08:15:05;4.32;;;1.70;;
2840;SDS011;53423;49.224;12.074;2022-08-01T08:17:34;5.03;;;1.50;;
2840;SDS011;53423;49.224;12.074;2022-08-01T08:20:03;5.60;;;2.07;;
2840;SDS011;53423;49.224;12.074;2022-08-01T08:22:35;3.90;;;1.40;;
2840;SDS011;53423;49.224;12.074;2022-08-01T08:25:04;4.63;;;1.35;;
2840;SDS011;53423;49.224;12.074;2022-08-01T08:27:35;4.82;;;1.40;;
2840;SDS011;53423;49.224;12.074;2022-08-01T08:30:04;4.10;;;1.40;;
2840;SDS011;53423;49.224;12.074;2022-08-01T08:32:35;3.87;;;1.30;;
2840;SDS011;53423;49.224;12.074;2022-08-01T08:35:04;4.90;;;1.30;;
2840;SDS011;53423;49.224;12.074;2022-08-01T08:37:33;5.05;;;1.10;;
2840;SDS011;53423;49.224;12.074;2022-08-01T08:40:08;4.30;;;1.20;;
2840;SDS011;53423;49.224;12.074;2022-08-01T08:42:40;5.78;;;1.30;;
2840;SDS011;53423;49.224;12.074;2022-08-01T08:45:09;3.47;;;0.90;;
2840;SDS011;53423;49.224;12.074;2022-08-01T08:47:38;4.28;;;1.10;;
2840;SDS011;53423;49.224;12.074;2022-08-01T08:50:09;4.55;;;1.00;;
2840;SDS011;53423;49.224;12.074;2022-08-01T08:52:38;4.40;;;1.00;;
2840;SDS011;53423;49.224;12.074;2022-08-01T08:55:08;3.50;;;0.93;;
2840;SDS011;53423;49.224;12.074;2022-08-01T08:57:39;5.77;;;0.90;;
2840;SDS011;53423;49.224;12.074;2022-08-01T09:00:10;3.38;;;0.93;;
2840;SDS011;53423;49.224;12.074;2022-08-01T09:02:40;4.10;;;1.20;;
2840;SDS011;53423;49.224;12.074;2022-08-01T09:05:10;4.35;;;1.10;;
2840;SDS011;53423;49.224;12.074;2022-08-01T09:07:44;4.07;;;0.90;;
2840;SDS011;53423;49.224;12.074;2022-08-01T09:10:13;4.10;;;1.00;;
2840;SDS011;53423;49.224;12.074;2022-08-01T09:15:37;4.28;;;1.00;;
2840;SDS011;53423;49.224;12.074;2022-08-01T09:18:26;3.90;;;1.10;;
2840;SDS011;53423;49.224;12.074;2022-08-01T09:23:42;4.77;;;0.97;;
2840;SDS011;53423;49.224;12.074;2022-08-01T09:26:20;4.78;;;0.90;;
2840;SDS011;53423;49.224;12.074;2022-08-01T09:28:58;3.33;;;0.80;;
2840;SDS011;53423;49.224;12.074;2022-08-01T09:31:27;3.47;;;1.00;;
2840;SDS011;53423;49.224;12.074;2022-08-01T09:34:03;4.38;;;1.02;;
2840;SDS011;53423;49.224;12.074;2022-08-01T09:36:43;3.67;;;0.80;;
2840;SDS011;53423;49.224;12.074;2022-08-01T09:39:20;5.35;;;1.10;;
2840;SDS011;53423;49.224;12.074;2022-08-01T09:41:49;5.07;;;1.05;;
2840;SDS011;53423;49.224;12.074;2022-08-01T09:44:25;4.63;;;0.93;;
2840;SDS011;53423;49.224;12.074;2022-08-01T09:47:09;4.63;;;0.90;;
2840;SDS011;53423;49.224;12.074;2022-08-01T09:49:41;3.80;;;1.00;;
2840;SDS011;53423;49.224;12.074;2022-08-01T09:52:18;3.90;;;1.10;;
2840;SDS011;53423;49.224;12.074;2022-08-01T09:54:55;4.25;;;1.20;;
2840;SDS011;53423;49.224;12.074;2022-08-01T09:57:25;4.20;;;1.00;;
2840;SDS011;53423;49.224;12.074;2022-08-01T09:59:56;3.60;;;0.90;;
2840;SDS011;53423;49.224;12.074;2022-08-01T10:02:28;6.43;;;1.13;;
2840;SDS011;53423;49.224;12.074;2022-08-01T10:04:59;3.65;;;1.10;;
2840;SDS011;53423;49.224;12.074;2022-08-01T10:07:34;4.13;;;0.90;;
2840;SDS011;53423;49.224;12.074;2022-08-01T10:10:10;4.80;;;1.10;;
2840;SDS011;53423;49.224;12.074;2022-08-01T10:12:40;4.63;;;1.20;;
2840;SDS011;53423;49.224;12.074;2022-08-01T10:15:12;3.50;;;1.00;;
2840;SDS011;53423;49.224;12.074;2022-08-01T10:17:49;4.00;;;1.02;;
2840;SDS011;53423;49.224;12.074;2022-08-01T10:20:23;4.75;;;1.20;;
2840;SDS011;53423;49.224;12.074;2022-08-01T10:22:58;4.43;;;0.90;;
2840;SDS011;53423;49.224;12.074;2022-08-01T10:25:34;4.18;;;0.85;;
2840;SDS011;53423;49.224;12.074;2022-08-01T10:28:13;4.23;;;1.10;;
2840;SDS011;53423;49.224;12.074;2022-08-01T10:30:50;4.78;;;1.10;;
2840;SDS011;53423;49.224;12.074;2022-08-01T10:33:21;5.70;;;1.30;;
2840;SDS011;53423;49.224;12.074;2022-08-01T10:36:10;3.50;;;1.10;;
2840;SDS011;53423;49.224;12.074;2022-08-01T10:38:39;4.15;;;1.10;;
2840;SDS011;53423;49.224;12.074;2022-08-01T10:41:09;3.67;;;1.17;;
2840;SDS011;53423;49.224;12.074;2022-08-01T10:43:41;3.42;;;0.93;;
2840;SDS011;53423;49.224;12.074;2022-08-01T10:46:13;3.78;;;1.20;;
2840;SDS011;53423;49.224;12.074;2022-08-01T10:48:45;4.57;;;1.20;;
2840;SDS011;53423;49.224;12.074;2022-08-01T10:51:18;4.72;;;1.42;;
2840;SDS011;53423;49.224;12.074;2022-08-01T10:54:08;3.80;;;1.10;;
2840;SDS011;53423;49.224;12.074;2022-08-01T10:56:39;4.22;;;1.02;;
2840;SDS011;53423;49.224;12.074;2022-08-01T10:59:10;5.45;;;1.10;;
2840;SDS011;53423;49.224;12.074;2022-08-01T11:02:04;3.63;;;0.80;;
2840;SDS011;53423;49.224;12.074;2022-08-01T11:04:34;3.63;;;0.98;;
2840;SDS011;53423;49.224;12.074;2022-08-01T11:07:16;3.90;;;1.00;;
2840;SDS011;53423;49.224;12.074;2022-08-01T11:09:58;4.35;;;1.00;;
2840;SDS011;53423;49.224;12.074;2022-08-01T11:12:41;3.80;;;1.05;;
2840;SDS011;53423;49.224;12.074;2022-08-01T11:15:16;5.40;;;1.25;;
2840;SDS011;53423;49.224;12.074;2022-08-01T11:17:57;4.65;;;1.25;;
2840;SDS011;53423;49.224;12.074;2022-08-01T11:20:27;4.60;;;1.10;;
2840;SDS011;53423;49.224;12.074;2022-08-01T11:29:12;3.45;;;1.00;;
2840;SDS011;53423;49.224;12.074;2022-08-01T11:31:47;3.88;;;0.77;;
2840;SDS011;53423;49.224;12.074;2022-08-01T11:34:17;3.90;;;1.00;;
2840;SDS011;53423;49.224;12.074;2022-08-01T11:39:22;4.70;;;1.10;;
2840;SDS011;53423;49.224;12.074;2022-08-01T11:41:51;3.65;;;1.00;;
2840;SDS011;53423;49.224;12.074;2022-08-01T11:44:22;3.42;;;0.90;;
2840;SDS011;53423;49.224;12.074;2022-08-01T11:46:56;3.33;;;0.90;;
2840;SDS011;53423;49.224;12.074;2022-08-01T11:52:25;4.47;;;1.00;;
2840;SDS011;53423;49.224;12.074;2022-08-01T11:54:55;3.60;;;1.10;;
2840;SDS011;53423;49.224;12.074;2022-08-01T11:57:25;4.13;;;1.15;;
2840;SDS011;53423;49.224;12.074;2022-08-01T12:00:00;3.50;;;1.07;;
2840;SDS011;53423;49.224;12.074;2022-08-01T12:02:34;4.00;;;1.20;;
2840;SDS011;53423;49.224;12.074;2022-08-01T12:05:04;3.40;;;0.90;;
2840;SDS011;53423;49.224;12.074;2022-08-01T12:07:38;3.38;;;0.90;;
2840;SDS011;53423;49.224;12.074;2022-08-01T12:10:08;3.53;;;0.98;;
2840;SDS011;53423;49.224;12.074;2022-08-01T12:12:42;3.60;;;0.73;;
2840;SDS011;53423;49.224;12.074;2022-08-01T12:15:11;3.15;;;0.85;;
2840;SDS011;53423;49.224;12.074;2022-08-01T12:17:40;3.60;;;0.90;;
2840;SDS011;53423;49.224;12.074;2022-08-01T12:20:26;4.13;;;1.15;;
2840;SDS011;53423;49.224;12.074;2022-08-01T12:22:57;3.80;;;1.05;;
2840;SDS011;53423;49.224;12.074;2022-08-01T12:25:27;3.30;;;0.80;;
2840;SDS011;53423;49.224;12.074;2022-08-01T12:27:58;3.70;;;1.00;;
2840;SDS011;53423;49.224;12.074;2022-08-01T12:30:28;3.35;;;0.95;;
2840;SDS011;53423;49.224;12.074;2022-08-01T12:33:01;5.25;;;1.00;;
2840;SDS011;53423;49.224;12.074;2022-08-01T12:35:32;3.60;;;1.00;;
2840;SDS011;53423;49.224;12.074;2022-08-01T12:38:03;3.80;;;1.27;;
2840;SDS011;53423;49.224;12.074;2022-08-01T12:40:33;4.35;;;1.23;;
2840;SDS011;53423;49.224;12.074;2022-08-01T12:43:08;3.97;;;1.05;;
2840;SDS011;53423;49.224;12.074;2022-08-01T12:45:53;3.72;;;1.00;;
2840;SDS011;53423;49.224;12.074;2022-08-01T12:48:23;5.25;;;1.27;;
2840;SDS011;53423;49.224;12.074;2022-08-01T12:50:53;4.03;;;1.13;;
2840;SDS011;53423;49.224;12.074;2022-08-01T12:53:24;3.42;;;0.90;;
2840;SDS011;53423;49.224;12.074;2022-08-01T12:56:07;6.20;;;1.00;;
2840;SDS011;53423;49.224;12.074;2022-08-01T12:58:37;3.42;;;0.95;;
2840;SDS011;53423;49.224;12.074;2022-08-01T13:01:06;7.55;;;0.95;;
2840;SDS011;53423;49.224;12.074;2022-08-01T13:03:36;3.53;;;0.97;;
2840;SDS011;53423;49.224;12.074;2022-08-01T13:06:11;3.53;;;0.98;;
2840;SDS011;53423;49.224;12.074;2022-08-01T13:08:42;3.25;;;0.88;;
2840;SDS011;53423;49.224;12.074;2022-08-01T13:11:11;3.00;;;0.77;;
2840;SDS011;53423;49.224;12.074;2022-08-01T13:13:42;4.22;;;0.98;;
2840;SDS011;53423;49.224;12.074;2022-08-01T13:16:14;4.10;;;1.10;;
2840;SDS011;53423;49.224;12.074;2022-08-01T13:19:03;3.25;;;0.90;;
2840;SDS011;53423;49.224;12.074;2022-08-01T13:21:34;3.97;;;1.17;;
2840;SDS011;53423;49.224;12.074;2022-08-01T13:24:23;3.80;;;1.00;;
2840;SDS011;53423;49.224;12.074;2022-08-01T13:26:54;3.58;;;0.98;;
2840;SDS011;53423;49.224;12.074;2022-08-01T13:29:29;4.30;;;1.00;;
2840;SDS011;53423;49.224;12.074;2022-08-01T13:31:59;3.53;;;1.05;;
2840;SDS011;53423;49.224;12.074;2022-08-01T13:35:00;3.75;;;1.00;;
2840;SDS011;53423;49.224;12.074;2022-08-01T13:37:30;4.40;;;1.10;;
2840;SDS011;53423;49.224;12.074;2022-08-01T13:39:59;4.00;;;1.10;;
2840;SDS011;53423;49.224;12.074;2022-08-01T13:42:27;4.17;;;1.00;;
2840;SDS011;53423;49.224;12.074;2022-08-01T13:44:57;4.05;;;1.00;;
2840;SDS011;53423;49.224;12.074;2022-08-01T13:47:25;4.30;;;1.00;;
2840;SDS011;53423;49.224;12.074;2022-08-01T13:49:57;3.28;;;0.90;;
2840;SDS011;53423;49.224;12.074;2022-08-01T13:52:27;3.90;;;0.90;;
2840;SDS011;53423;49.224;12.074;2022-08-01T13:54:57;4.03;;;1.00;;
2840;SDS011;53423;49.224;12.074;2022-08-01T13:57:26;3.25;;;0.90;;
2840;SDS011;53423;49.224;12.074;2022-08-01T14:00:03;5.05;;;1.05;;
2840;SDS011;53423;49.224;12.074;2022-08-01T14:02:32;4.72;;;1.00;;
2840;SDS011;53423;49.224;12.074;2022-08-01T14:05:00;3.45;;;0.98;;
2840;SDS011;53423;49.224;12.074;2022-08-01T14:07:29;3.50;;;0.90;;
2840;SDS011;53423;49.224;12.074;2022-08-01T14:09:58;4.20;;;1.10;;
2840;SDS011;53423;49.224;12.074;2022-08-01T14:12:45;3.88;;;1.10;;
2840;SDS011;53423;49.224;12.074;2022-08-01T14:15:13;4.72;;;1.05;;
2840;SDS011;53423;49.224;12.074;2022-08-01T14:18:02;4.55;;;1.20;;
2840;SDS011;53423;49.224;12.074;2022-08-01T14:20:31;4.73;;;1.00;;
2840;SDS011;53423;49.224;12.074;2022-08-01T14:22:59;4.68;;;0.82;;
2840;SDS011;53423;49.224;12.074;2022-08-01T14:25:29;4.28;;;1.00;;
2840;SDS011;53423;49.224;12.074;2022-08-01T14:28:17;3.50;;;0.98;;
2840;SDS011;53423;49.224;12.074;2022-08-01T14:30:45;4.60;;;1.10;;
2840;SDS011;53423;49.224;12.074;2022-08-01T14:33:14;3.60;;;1.00;;
2840;SDS011;53423;49.224;12.074;2022-08-01T14:35:42;3.40;;;0.90;;
2840;SDS011;53423;49.224;12.074;2022-08-01T14:38:30;4.80;;;1.20;;
2840;SDS011;53423;49.224;12.074;2022-08-01T14:41:01;3.70;;;0.90;;
2840;SDS011;53423;49.224;12.074;2022-08-01T14:43:30;4.90;;;1.00;;
2840;SDS011;53423;49.224;12.074;2022-08-01T14:45:59;3.20;;;0.90;;
2840;SDS011;53423;49.224;12.074;2022-08-01T14:48:30;3.28;;;0.90;;
2840;SDS011;53423;49.224;12.074;2022-08-01T14:50:58;4.22;;;1.30;;
2840;SDS011;53423;49.224;12.074;2022-08-01T14:53:29;4.15;;;1.00;;
2840;SDS011;53423;49.224;12.074;2022-08-01T14:56:02;4.90;;;1.25;;
2840;SDS011;53423;49.224;12.074;2022-08-01T14:58:31;3.50;;;1.00;;
2840;SDS011;53423;49.224;12.074;2022-08-01T15:00:59;3.53;;;0.93;;
2840;SDS011;53423;49.224;12.074;2022-08-01T15:03:28;4.53;;;1.33;;
2840;SDS011;53423;49.224;12.074;2022-08-01T15:05:57;4.53;;;1.10;;
2840;SDS011;53423;49.224;12.074;2022-08-01T15:08:26;4.30;;;1.15;;
2840;SDS011;53423;49.224;12.074;2022-08-01T15:10:56;3.50;;;1.07;;
2840;SDS011;53423;49.224;12.074;2022-08-01T15:13:25;3.85;;;1.00;;
2840;SDS011;53423;49.224;12.074;2022-08-01T15:15:54;3.83;;;0.90;;
2840;SDS011;53423;49.224;12.074;2022-08-01T15:18:25;3.90;;;1.00;;
2840;SDS011;53423;49.224;12.074;2022-08-01T15:20:54;3.55;;;0.93;;
2840;SDS011;53423;49.224;12.074;2022-08-01T15:23:23;3.50;;;0.90;;
2840;SDS011;53423;49.224;12.074;2022-08-01T15:25:51;3.72;;;1.00;;
2840;SDS011;53423;49.224;12.074;2022-08-01T15:28:20;6.38;;;1.30;;
2840;SDS011;53423;49.224;12.074;2022-08-01T15:30:50;4.45;;;1.10;;
2840;SDS011;53423;49.224;12.074;2022-08-01T15:33:18;3.80;;;1.10;;